createdAt,value
2018-09-23T19:19:45.211Z,89.07
2018-09-23T19:20:55.709Z,89.17
2018-09-23T19:22:06.749Z,89.45
2018-09-23T19:23:17.029Z,89.17
2018-09-23T19:24:27.239Z,89.36
2018-09-23T19:25:37.548Z,89.45
2018-09-23T19:26:47.871Z,89.93
2018-09-23T19:27:58.291Z,89.45
2018-09-23T19:29:09.024Z,88.88
2018-09-23T19:30:19.281Z,89.26
2018-09-23T19:31:29.530Z,89.07
2018-09-23T19:32:39.865Z,89.17
2018-09-23T19:33:50.398Z,89.26
2018-09-23T19:35:00.934Z,89.07
2018-09-23T19:36:11.179Z,89.26
2018-09-23T19:37:21.425Z,89.07
2018-09-23T19:38:31.671Z,89.07
2018-09-23T19:39:41.946Z,88.88
2018-09-23T19:40:52.250Z,89.26
2018-09-23T19:42:02.580Z,89.03
2018-09-23T19:43:13.156Z,89.07
2018-09-23T19:44:23.459Z,89.07
2018-09-23T19:45:33.924Z,88.88
2018-09-23T19:46:44.383Z,89.12
2018-09-23T19:47:54.635Z,88.74
2018-09-23T19:49:04.957Z,88.84
2018-09-23T19:50:15.351Z,89.22
2018-09-23T19:51:25.743Z,88.93
2018-09-23T19:52:36.235Z,88.98
2018-09-23T19:53:46.534Z,88.98
2018-09-23T19:54:56.745Z,88.98
2018-09-23T19:56:06.922Z,89.36
2018-09-23T19:57:17.137Z,89.03
2018-09-23T19:58:27.321Z,89.31
2018-09-23T19:59:37.809Z,89.03
2018-09-23T20:00:48.270Z,89.12
2018-09-23T20:01:58.509Z,88.93
2018-09-23T20:03:08.430Z,88.78
2018-09-23T20:04:18.709Z,88.78
2018-09-23T20:05:29.198Z,88.78
2018-09-23T20:06:39.795Z,88.02
2018-09-23T20:07:51.000Z,88.07
2018-09-23T20:09:01.245Z,88.64
2018-09-23T20:10:11.435Z,88.07
2018-09-23T20:11:22.774Z,88.5
2018-09-23T20:12:33.230Z,88.36
2018-09-23T20:13:43.658Z,88.45
2018-09-23T20:14:54.070Z,88.45
2018-09-23T20:16:04.317Z,88.69
2018-09-23T20:17:14.516Z,88.5
2018-09-23T20:18:24.712Z,88.21
2018-09-23T20:19:34.928Z,88.69
2018-09-23T20:20:45.104Z,88.31
2018-09-23T20:21:55.290Z,87.98
2018-09-23T20:23:05.478Z,88.5
2018-09-23T20:24:15.673Z,88.36
2018-09-23T20:25:25.913Z,88.36
2018-09-23T20:26:36.168Z,88.36
2018-09-23T20:27:47.567Z,88.17
2018-09-23T20:28:57.568Z,88.36
2018-09-23T20:30:07.756Z,87.98
2018-09-23T20:31:18.072Z,88.07
2018-09-23T20:32:28.275Z,88.36
2018-09-23T20:33:38.493Z,87.88
2018-09-23T20:34:48.674Z,88.36
2018-09-23T20:35:58.933Z,88.36
2018-09-23T20:37:09.449Z,88.64
2018-09-23T20:38:19.675Z,88.55
2018-09-23T20:39:29.890Z,87.98
2018-09-23T20:40:39.859Z,88.64
2018-09-23T20:41:50.053Z,88.36
2018-09-23T20:43:00.435Z,87.88
2018-09-23T20:44:10.827Z,88.45
2018-09-23T20:45:21.055Z,88.17
2018-09-23T20:46:30.970Z,88.55
2018-09-23T20:47:41.186Z,87.88
2018-09-23T20:48:51.431Z,88.17
2018-09-23T20:50:01.566Z,88.36
2018-09-23T20:51:11.800Z,88.26
2018-09-23T20:52:22.025Z,88.17
2018-09-23T20:53:32.305Z,88.36
2018-09-23T20:54:42.778Z,88.17
2018-09-23T20:55:52.959Z,88.26
2018-09-23T20:57:03.121Z,88.07
2018-09-23T20:58:13.347Z,88.36
2018-09-23T20:59:23.590Z,88.17
2018-09-23T21:00:33.989Z,88.45
2018-09-23T21:01:44.265Z,88.45
2018-09-23T21:02:54.715Z,88.45
2018-09-23T21:04:04.982Z,88.36
2018-09-23T21:05:15.484Z,88.55
2018-09-23T21:06:25.683Z,88.55
2018-09-23T21:07:35.940Z,88.45
2018-09-23T21:08:46.098Z,89.12
2018-09-23T21:09:55.653Z,89.12
2018-09-23T21:11:05.299Z,89.03
2018-09-23T21:12:15.438Z,89.12
2018-09-23T21:13:25.607Z,88.74
2018-09-23T21:14:35.778Z,88.93
2018-09-23T21:15:46.044Z,88.84
2018-09-23T21:16:56.210Z,89.4
2018-09-23T21:18:06.370Z,88.93
2018-09-23T21:19:16.258Z,89.22
2018-09-23T21:20:26.437Z,89.03
2018-09-23T21:21:36.592Z,88.74
2018-09-23T21:22:46.504Z,89.4
2018-09-23T21:23:56.657Z,89.6
2018-09-23T21:25:06.825Z,89.31
2018-09-23T21:26:17.008Z,89.4
2018-09-23T21:27:27.159Z,89.22
2018-09-23T21:28:37.331Z,89.22
2018-09-23T21:29:47.541Z,89.4
2018-09-23T21:30:57.717Z,89.31
2018-09-23T21:32:08.058Z,89.31
2018-09-23T21:33:18.313Z,89.31
2018-09-23T21:34:28.526Z,89.4
2018-09-23T21:35:38.678Z,89.4
2018-09-23T21:36:48.994Z,89.22
2018-09-23T21:37:59.157Z,89.31
2018-09-23T21:39:09.407Z,89.4
2018-09-23T21:40:19.310Z,89.4
2018-09-23T21:41:29.464Z,89.22
2018-09-23T21:42:39.893Z,89.31
2018-09-23T21:43:50.154Z,89.03
2018-09-23T21:45:00.075Z,89.4
2018-09-23T21:46:10.301Z,89.5
2018-09-23T21:47:20.470Z,89.4
2018-09-23T21:48:30.422Z,90.17
2018-09-23T21:49:40.595Z,89.5
2018-09-23T21:50:51.004Z,89.4
2018-09-23T21:52:01.232Z,89.89
2018-09-23T21:53:11.460Z,89.79
2018-09-23T21:54:21.704Z,89.89
2018-09-23T21:55:32.160Z,89.89
2018-09-23T21:56:42.309Z,89.89
2018-09-23T21:57:52.453Z,89.98
2018-09-23T21:59:02.640Z,89.79
2018-09-23T22:00:12.802Z,89.6
2018-09-23T22:01:22.962Z,89.69
2018-09-23T22:02:33.144Z,90.08
2018-09-23T22:03:43.300Z,89.79
2018-09-23T22:04:53.430Z,89.89
2018-09-23T22:06:03.578Z,89.89
2018-09-23T22:07:13.746Z,89.89
2018-09-23T22:08:23.535Z,89.4
2018-09-23T22:09:33.703Z,89.69
2018-09-23T22:10:43.938Z,89.22
2018-09-23T22:11:54.298Z,89.4
2018-09-23T22:13:04.459Z,89.5
2018-09-23T22:14:14.626Z,89.31
2018-09-23T22:15:24.765Z,89.12
2018-09-23T22:16:34.645Z,89.4
2018-09-23T22:17:45.036Z,89.31
2018-09-23T22:18:55.646Z,89.12
2018-09-23T22:20:05.814Z,89.22
2018-09-23T22:21:15.973Z,89.4
2018-09-23T22:22:26.245Z,89.4
2018-09-23T22:23:36.332Z,89.4
2018-09-23T22:24:46.489Z,88.93
2018-09-23T22:25:56.842Z,89.03
2018-09-23T22:27:07.163Z,89.12
2018-09-23T22:28:17.342Z,89.22
2018-09-23T22:29:27.480Z,89.03
2018-09-23T22:30:37.653Z,89.4
2018-09-23T22:31:48.002Z,89.4
2018-09-23T22:32:58.223Z,88.93
2018-09-23T22:34:08.464Z,88.74
2018-09-23T22:35:18.586Z,89.03
2018-09-23T22:36:28.814Z,89.03
2018-09-23T22:37:38.622Z,89.12
2018-09-23T22:38:48.777Z,89.03
2018-09-23T22:39:58.654Z,88.84
2018-09-23T22:41:08.854Z,88.36
2018-09-23T22:42:18.652Z,88.36
2018-09-23T22:43:29.020Z,88.45
2018-09-23T22:44:39.223Z,88.74
2018-09-23T22:45:49.480Z,88.36
2018-09-23T22:46:59.353Z,88.45
2018-09-23T22:48:09.551Z,87.88
2018-09-23T22:49:19.722Z,88.45
2018-09-23T22:50:30.060Z,87.98
2018-09-23T22:51:40.220Z,88.17
2018-09-23T22:52:50.107Z,88.07
2018-09-23T22:54:00.250Z,88.07
2018-09-23T22:55:10.399Z,87.88
2018-09-23T22:56:20.791Z,88.36
2018-09-23T22:57:30.927Z,88.17
2018-09-23T22:58:41.084Z,87.69
2018-09-23T22:59:51.215Z,87.36
2018-09-23T23:01:01.405Z,87.6
2018-09-23T23:02:11.655Z,87.31
2018-09-23T23:03:21.945Z,87.5
2018-09-23T23:04:32.298Z,87.6
2018-09-23T23:05:42.485Z,86.93
2018-09-23T23:06:52.667Z,87.17
2018-09-23T23:08:02.511Z,86.93
2018-09-23T23:09:12.867Z,87.21
2018-09-23T23:10:23.219Z,87.12
2018-09-23T23:11:33.413Z,86.79
2018-09-23T23:12:43.343Z,86.79
2018-09-23T23:13:53.106Z,86.98
2018-09-23T23:15:02.983Z,86.69
2018-09-23T23:16:13.160Z,87.07
2018-09-23T23:17:23.306Z,87.07
2018-09-23T23:18:33.477Z,86.98
2018-09-23T23:19:43.651Z,86.98
2018-09-23T23:20:53.875Z,86.88
2018-09-23T23:22:04.028Z,86.98
2018-09-23T23:23:14.151Z,86.88
2018-09-23T23:24:24.272Z,86.88
2018-09-23T23:25:34.405Z,87.17
2018-09-23T23:26:44.527Z,87.65
2018-09-23T23:27:54.525Z,87.27
2018-09-23T23:29:04.713Z,87.46
2018-09-23T23:30:15.075Z,87.27
2018-09-23T23:31:25.299Z,87.36
2018-09-23T23:32:35.490Z,87.36
2018-09-23T23:33:45.797Z,87.36
2018-09-23T23:34:55.993Z,87.36
2018-09-23T23:36:06.232Z,87.36
2018-09-23T23:37:16.115Z,87.27
2018-09-23T23:38:26.439Z,87.55
2018-09-23T23:39:36.559Z,87.74
2018-09-23T23:40:46.674Z,87.55
2018-09-23T23:41:56.796Z,87.55
2018-09-23T23:43:07.220Z,87.93
2018-09-23T23:44:17.383Z,87.74
2018-09-23T23:45:27.737Z,87.65
2018-09-23T23:46:37.909Z,87.84
2018-09-23T23:47:48.041Z,87.46
2018-09-23T23:48:58.383Z,88.22
2018-09-23T23:50:08.567Z,87.93
2018-09-23T23:51:18.693Z,88.03
2018-09-23T23:52:28.836Z,87.74
2018-09-23T23:53:38.752Z,87.65
2018-09-23T23:54:48.876Z,87.65
2018-09-23T23:55:59.006Z,87.65
2018-09-23T23:57:08.634Z,87.84
2018-09-23T23:58:18.985Z,87.93
2018-09-23T23:59:29.105Z,88.22
